sensor_id;sensor_type;location;lat;lon;timestamp;pressure;altitude;pressure_sealevel;temperature;humidity
81476;BME280;70891;52.540;5.504;2023-07-09T00:02:14;101807.97;;;18.24;91.32
81476;BME280;70891;52.540;5.504;2023-07-09T00:04:40;101801.63;;;18.24;91.21
81476;BME280;70891;52.540;5.504;2023-07-09T00:07:13;101798.84;;;18.24;90.21
81476;BME280;70891;52.540;5.504;2023-07-09T00:09:40;101800.44;;;18.20;90.95
81476;BME280;70891;52.540;5.504;2023-07-09T00:12:12;101795.97;;;18.19;90.72
81476;BME280;70891;52.540;5.504;2023-07-09T00:14:37;101795.75;;;18.20;90.13
81476;BME280;70891;52.540;5.504;2023-07-09T00:17:04;101793.69;;;18.16;91.34
81476;BME280;70891;52.540;5.504;2023-07-09T00:19:32;101785.66;;;18.14;90.98
81476;BME280;70891;52.540;5.504;2023-07-09T00:21:58;101791.78;;;18.16;90.60
81476;BME280;70891;52.540;5.504;2023-07-09T00:24:23;101791.31;;;18.19;90.82
81476;BME280;70891;52.540;5.504;2023-07-09T00:26:48;101784.34;;;18.17;90.50
81476;BME280;70891;52.540;5.504;2023-07-09T00:29:16;101789.47;;;18.13;90.70
81476;BME280;70891;52.540;5.504;2023-07-09T00:31:41;101787.81;;;18.12;90.12
81476;BME280;70891;52.540;5.504;2023-07-09T00:34:09;101792.13;;;18.08;91.35
81476;BME280;70891;52.540;5.504;2023-07-09T00:36:37;101796.66;;;18.03;91.40
81476;BME280;70891;52.540;5.504;2023-07-09T00:39:02;101797.97;;;18.00;91.94
81476;BME280;70891;52.540;5.504;2023-07-09T00:41:33;101792.47;;;18.00;91.85
81476;BME280;70891;52.540;5.504;2023-07-09T00:44:17;101798.09;;;18.05;91.23
81476;BME280;70891;52.540;5.504;2023-07-09T00:49:11;101795.34;;;18.05;91.82
81476;BME280;70891;52.540;5.504;2023-07-09T00:51:44;101806.63;;;18.04;92.18
81476;BME280;70891;52.540;5.504;2023-07-09T00:54:40;101807.31;;;17.99;93.18
81476;BME280;70891;52.540;5.504;2023-07-09T00:57:14;101813.78;;;17.93;92.30
81476;BME280;70891;52.540;5.504;2023-07-09T00:59:47;101815.00;;;17.97;92.18
81476;BME280;70891;52.540;5.504;2023-07-09T01:02:14;101812.34;;;18.02;91.79
81476;BME280;70891;52.540;5.504;2023-07-09T01:04:40;101811.66;;;18.07;91.63
81476;BME280;70891;52.540;5.504;2023-07-09T01:07:06;101808.06;;;18.06;91.53
81476;BME280;70891;52.540;5.504;2023-07-09T01:09:32;101812.88;;;18.11;90.84
81476;BME280;70891;52.540;5.504;2023-07-09T01:12:02;101809.50;;;18.09;91.25
81476;BME280;70891;52.540;5.504;2023-07-09T01:14:29;101805.78;;;18.03;92.10
81476;BME280;70891;52.540;5.504;2023-07-09T01:17:00;101818.59;;;17.98;92.04
81476;BME280;70891;52.540;5.504;2023-07-09T01:19:29;101811.03;;;17.93;92.09
81476;BME280;70891;52.540;5.504;2023-07-09T01:21:57;101814.13;;;17.97;91.33
81476;BME280;70891;52.540;5.504;2023-07-09T01:27:11;101794.72;;;17.92;91.16
81476;BME280;70891;52.540;5.504;2023-07-09T01:29:37;101810.06;;;17.88;91.74
81476;BME280;70891;52.540;5.504;2023-07-09T01:32:03;101800.69;;;17.89;91.63
81476;BME280;70891;52.540;5.504;2023-07-09T01:34:29;101805.84;;;17.85;91.77
81476;BME280;70891;52.540;5.504;2023-07-09T01:36:56;101804.16;;;17.84;91.26
81476;BME280;70891;52.540;5.504;2023-07-09T01:39:21;101801.41;;;17.84;91.66
81476;BME280;70891;52.540;5.504;2023-07-09T01:41:47;101813.16;;;17.79;92.16
81476;BME280;70891;52.540;5.504;2023-07-09T01:44:12;101804.50;;;17.76;91.66
81476;BME280;70891;52.540;5.504;2023-07-09T01:46:39;101807.25;;;17.76;91.75
81476;BME280;70891;52.540;5.504;2023-07-09T01:49:07;101812.16;;;17.74;91.75
81476;BME280;70891;52.540;5.504;2023-07-09T01:51:34;101816.22;;;17.71;92.13
81476;BME280;70891;52.540;5.504;2023-07-09T01:54:01;101813.22;;;17.73;91.34
81476;BME280;70891;52.540;5.504;2023-07-09T01:56:26;101814.91;;;17.74;91.29
81476;BME280;70891;52.540;5.504;2023-07-09T01:58:52;101815.59;;;17.69;91.74
81476;BME280;70891;52.540;5.504;2023-07-09T02:01:17;101816.91;;;17.67;92.49
81476;BME280;70891;52.540;5.504;2023-07-09T02:03:45;101825.44;;;17.65;92.59
81476;BME280;70891;52.540;5.504;2023-07-09T02:06:10;101831.41;;;17.62;92.84
81476;BME280;70891;52.540;5.504;2023-07-09T02:08:36;101827.59;;;17.63;93.25
81476;BME280;70891;52.540;5.504;2023-07-09T02:11:02;101828.66;;;17.62;93.19
81476;BME280;70891;52.540;5.504;2023-07-09T02:13:27;101824.56;;;17.65;92.05
81476;BME280;70891;52.540;5.504;2023-07-09T02:15:52;101822.06;;;17.63;92.07
81476;BME280;70891;52.540;5.504;2023-07-09T02:18:18;101820.50;;;17.67;92.06
81476;BME280;70891;52.540;5.504;2023-07-09T02:20:46;101827.47;;;17.70;91.58
81476;BME280;70891;52.540;5.504;2023-07-09T02:23:11;101826.63;;;17.69;91.58
81476;BME280;70891;52.540;5.504;2023-07-09T02:25:36;101820.75;;;17.66;92.17
81476;BME280;70891;52.540;5.504;2023-07-09T02:28:02;101820.97;;;17.64;93.03
81476;BME280;70891;52.540;5.504;2023-07-09T02:30:27;101823.53;;;17.66;92.36
81476;BME280;70891;52.540;5.504;2023-07-09T02:32:53;101817.38;;;17.64;92.21
81476;BME280;70891;52.540;5.504;2023-07-09T02:35:20;101822.66;;;17.65;92.36
81476;BME280;70891;52.540;5.504;2023-07-09T02:37:45;101813.78;;;17.63;92.57
81476;BME280;70891;52.540;5.504;2023-07-09T02:40:12;101821.69;;;17.60;92.69
81476;BME280;70891;52.540;5.504;2023-07-09T02:42:37;101817.88;;;17.61;91.77
81476;BME280;70891;52.540;5.504;2023-07-09T02:45:03;101820.13;;;17.64;92.15
81476;BME280;70891;52.540;5.504;2023-07-09T02:47:29;101820.91;;;17.71;91.30
81476;BME280;70891;52.540;5.504;2023-07-09T02:49:54;101814.78;;;17.69;91.68
81476;BME280;70891;52.540;5.504;2023-07-09T02:52:19;101823.28;;;17.67;91.81
81476;BME280;70891;52.540;5.504;2023-07-09T02:54:45;101825.81;;;17.69;92.62
81476;BME280;70891;52.540;5.504;2023-07-09T02:57:11;101833.22;;;17.68;92.15
81476;BME280;70891;52.540;5.504;2023-07-09T02:59:36;101831.78;;;17.66;92.47
81476;BME280;70891;52.540;5.504;2023-07-09T03:02:02;101832.84;;;17.65;91.76
81476;BME280;70891;52.540;5.504;2023-07-09T03:04:27;101832.13;;;17.69;91.45
81476;BME280;70891;52.540;5.504;2023-07-09T03:06:53;101825.19;;;17.67;90.86
81476;BME280;70891;52.540;5.504;2023-07-09T03:09:20;101826.88;;;17.68;91.24
81476;BME280;70891;52.540;5.504;2023-07-09T03:11:45;101815.97;;;17.73;90.64
81476;BME280;70891;52.540;5.504;2023-07-09T03:14:11;101820.44;;;17.74;91.06
81476;BME280;70891;52.540;5.504;2023-07-09T03:16:36;101817.03;;;17.72;90.78
81476;BME280;70891;52.540;5.504;2023-07-09T03:19:02;101817.28;;;17.70;91.81
81476;BME280;70891;52.540;5.504;2023-07-09T03:21:29;101822.09;;;17.75;91.19
81476;BME280;70891;52.540;5.504;2023-07-09T03:23:55;101817.56;;;17.80;90.87
81476;BME280;70891;52.540;5.504;2023-07-09T03:26:21;101813.75;;;17.81;91.29
81476;BME280;70891;52.540;5.504;2023-07-09T03:28:46;101812.03;;;17.80;89.82
81476;BME280;70891;52.540;5.504;2023-07-09T03:31:12;101806.66;;;17.74;89.84
81476;BME280;70891;52.540;5.504;2023-07-09T03:33:37;101812.16;;;17.74;90.08
81476;BME280;70891;52.540;5.504;2023-07-09T03:36:03;101814.66;;;17.75;90.34
81476;BME280;70891;52.540;5.504;2023-07-09T03:38:30;101814.59;;;17.82;89.89
81476;BME280;70891;52.540;5.504;2023-07-09T03:40:55;101816.41;;;17.88;89.44
81476;BME280;70891;52.540;5.504;2023-07-09T03:43:21;101809.72;;;17.96;89.05
81476;BME280;70891;52.540;5.504;2023-07-09T03:45:47;101807.94;;;18.01;89.60
81476;BME280;70891;52.540;5.504;2023-07-09T03:48:17;101823.19;;;18.04;90.17
81476;BME280;70891;52.540;5.504;2023-07-09T03:50:44;101818.34;;;17.99;90.47
81476;BME280;70891;52.540;5.504;2023-07-09T03:53:11;101827.13;;;17.96;90.45
81476;BME280;70891;52.540;5.504;2023-07-09T03:55:36;101825.41;;;17.95;90.71
81476;BME280;70891;52.540;5.504;2023-07-09T03:58:03;101837.63;;;17.88;92.16
81476;BME280;70891;52.540;5.504;2023-07-09T04:00:29;101837.84;;;17.86;91.72
81476;BME280;70891;52.540;5.504;2023-07-09T04:02:54;101830.34;;;17.93;91.45
81476;BME280;70891;52.540;5.504;2023-07-09T04:05:22;101831.78;;;17.96;90.91
81476;BME280;70891;52.540;5.504;2023-07-09T04:07:47;101831.66;;;18.02;90.66
81476;BME280;70891;52.540;5.504;2023-07-09T04:10:13;101836.72;;;18.05;90.69
81476;BME280;70891;52.540;5.504;2023-07-09T04:12:39;101828.44;;;18.05;90.59
81476;BME280;70891;52.540;5.504;2023-07-09T04:15:04;101831.34;;;18.10;90.44
81476;BME280;70891;52.540;5.504;2023-07-09T04:17:31;101822.38;;;18.15;90.48
81476;BME280;70891;52.540;5.504;2023-07-09T04:19:56;101823.81;;;18.17;90.50
81476;BME280;70891;52.540;5.504;2023-07-09T04:22:21;101821.53;;;18.14;90.27
81476;BME280;70891;52.540;5.504;2023-07-09T04:24:47;101827.03;;;18.14;90.47
81476;BME280;70891;52.540;5.504;2023-07-09T04:27:12;101834.00;;;18.17;89.88
81476;BME280;70891;52.540;5.504;2023-07-09T04:29:39;101837.00;;;18.15;90.51
81476;BME280;70891;52.540;5.504;2023-07-09T04:32:06;101833.75;;;18.18;90.45
81476;BME280;70891;52.540;5.504;2023-07-09T04:34:31;101836.03;;;18.21;90.41
81476;BME280;70891;52.540;5.504;2023-07-09T04:36:57;101838.47;;;18.29;90.88
81476;BME280;70891;52.540;5.504;2023-07-09T04:39:22;101844.34;;;18.33;90.81
81476;BME280;70891;52.540;5.504;2023-07-09T04:41:48;101841.97;;;18.36;90.90
81476;BME280;70891;52.540;5.504;2023-07-09T04:44:13;101845.06;;;18.40;89.79
81476;BME280;70891;52.540;5.504;2023-07-09T04:46:39;101854.31;;;18.45;90.04
81476;BME280;70891;52.540;5.504;2023-07-09T04:49:05;101856.16;;;18.52;89.27
81476;BME280;70891;52.540;5.504;2023-07-09T04:51:30;101847.91;;;18.63;89.62
81476;BME280;70891;52.540;5.504;2023-07-09T04:53:56;101857.88;;;18.76;89.74
81476;BME280;70891;52.540;5.504;2023-07-09T04:56:22;101852.63;;;18.86;89.05
81476;BME280;70891;52.540;5.504;2023-07-09T04:58:47;101860.28;;;18.95;89.28
81476;BME280;70891;52.540;5.504;2023-07-09T05:01:13;101859.19;;;19.08;88.31
81476;BME280;70891;52.540;5.504;2023-07-09T05:03:38;101859.66;;;19.28;88.21
81476;BME280;70891;52.540;5.504;2023-07-09T05:06:04;101859.28;;;19.48;89.25
81476;BME280;70891;52.540;5.504;2023-07-09T05:08:29;101853.94;;;19.70;89.55
81476;BME280;70891;52.540;5.504;2023-07-09T05:10:56;101863.72;;;19.89;89.16
81476;BME280;70891;52.540;5.504;2023-07-09T05:13:22;101858.56;;;20.09;87.91
81476;BME280;70891;52.540;5.504;2023-07-09T05:15:48;101857.78;;;20.25;87.83
81476;BME280;70891;52.540;5.504;2023-07-09T05:18:15;101857.47;;;20.55;86.76
81476;BME280;70891;52.540;5.504;2023-07-09T05:20:41;101853.34;;;20.57;83.90
81476;BME280;70891;52.540;5.504;2023-07-09T05:23:09;101848.09;;;20.72;82.80
81476;BME280;70891;52.540;5.504;2023-07-09T05:25:34;101851.94;;;20.88;84.94
81476;BME280;70891;52.540;5.504;2023-07-09T05:27:59;101846.28;;;21.00;84.38
81476;BME280;70891;52.540;5.504;2023-07-09T05:30:25;101843.97;;;21.08;85.38
81476;BME280;70891;52.540;5.504;2023-07-09T05:32:51;101848.63;;;21.24;82.17
81476;BME280;70891;52.540;5.504;2023-07-09T05:35:19;101849.31;;;21.36;82.00
81476;BME280;70891;52.540;5.504;2023-07-09T05:37:44;101853.84;;;21.43;82.62
81476;BME280;70891;52.540;5.504;2023-07-09T05:40:09;101859.06;;;21.39;83.99
81476;BME280;70891;52.540;5.504;2023-07-09T05:42:35;101863.53;;;21.62;83.66
81476;BME280;70891;52.540;5.504;2023-07-09T05:45:00;101858.09;;;21.93;80.28
81476;BME280;70891;52.540;5.504;2023-07-09T05:47:26;101864.84;;;22.29;80.94
81476;BME280;70891;52.540;5.504;2023-07-09T05:49:51;101864.47;;;22.74;80.38
81476;BME280;70891;52.540;5.504;2023-07-09T05:52:18;101874.78;;;23.21;78.56
81476;BME280;70891;52.540;5.504;2023-07-09T05:54:43;101869.09;;;23.42;77.34
81476;BME280;70891;52.540;5.504;2023-07-09T05:57:09;101872.25;;;23.66;74.73
81476;BME280;70891;52.540;5.504;2023-07-09T05:59:35;101872.91;;;23.83;73.56
81476;BME280;70891;52.540;5.504;2023-07-09T06:02:00;101876.25;;;23.90;75.38
81476;BME280;70891;52.540;5.504;2023-07-09T06:04:26;101877.38;;;23.94;72.10
81476;BME280;70891;52.540;5.504;2023-07-09T06:06:52;101874.97;;;24.28;72.19
81476;BME280;70891;52.540;5.504;2023-07-09T06:09:17;101879.16;;;24.25;70.09
81476;BME280;70891;52.540;5.504;2023-07-09T06:11:42;101878.06;;;24.42;69.88
81476;BME280;70891;52.540;5.504;2023-07-09T06:14:09;101871.97;;;24.80;73.19
81476;BME280;70891;52.540;5.504;2023-07-09T06:16:34;101874.72;;;25.05;71.92
81476;BME280;70891;52.540;5.504;2023-07-09T06:18:59;101879.16;;;25.26;69.63
81476;BME280;70891;52.540;5.504;2023-07-09T06:21:25;101880.78;;;25.48;71.13
81476;BME280;70891;52.540;5.504;2023-07-09T06:23:50;101880.13;;;25.76;69.90
81476;BME280;70891;52.540;5.504;2023-07-09T06:26:15;101874.38;;;26.01;66.81
81476;BME280;70891;52.540;5.504;2023-07-09T06:28:41;101874.47;;;25.86;66.64
81476;BME280;70891;52.540;5.504;2023-07-09T06:31:06;101871.75;;;25.76;65.06
81476;BME280;70891;52.540;5.504;2023-07-09T06:33:31;101872.16;;;26.03;67.69
81476;BME280;70891;52.540;5.504;2023-07-09T06:36:00;101869.81;;;26.59;66.99
81476;BME280;70891;52.540;5.504;2023-07-09T06:38:26;101879.19;;;27.07;65.62
81476;BME280;70891;52.540;5.504;2023-07-09T06:40:52;101882.81;;;27.36;62.61
81476;BME280;70891;52.540;5.504;2023-07-09T06:43:18;101884.13;;;27.67;64.55
81476;BME280;70891;52.540;5.504;2023-07-09T06:45:55;101889.19;;;28.13;62.91
81476;BME280;70891;52.540;5.504;2023-07-09T06:48:22;101875.91;;;28.37;63.03
81476;BME280;70891;52.540;5.504;2023-07-09T06:50:47;101882.28;;;28.43;62.75
81476;BME280;70891;52.540;5.504;2023-07-09T06:53:13;101890.31;;;28.12;58.28
81476;BME280;70891;52.540;5.504;2023-07-09T06:55:38;101887.38;;;27.98;56.68
81476;BME280;70891;52.540;5.504;2023-07-09T06:58:04;101880.47;;;27.72;57.35
81476;BME280;70891;52.540;5.504;2023-07-09T07:00:30;101886.66;;;28.30;57.75
81476;BME280;70891;52.540;5.504;2023-07-09T07:02:55;101886.88;;;28.71;61.19
81476;BME280;70891;52.540;5.504;2023-07-09T07:05:20;101887.09;;;28.56;58.72
81476;BME280;70891;52.540;5.504;2023-07-09T07:07:46;101892.41;;;28.57;58.57
81476;BME280;70891;52.540;5.504;2023-07-09T07:10:11;101895.25;;;28.89;59.76
81476;BME280;70891;52.540;5.504;2023-07-09T07:12:45;101895.53;;;29.20;58.70
81476;BME280;70891;52.540;5.504;2023-07-09T07:15:13;101893.09;;;29.46;58.55
81476;BME280;70891;52.540;5.504;2023-07-09T07:17:39;101894.97;;;29.78;56.36
81476;BME280;70891;52.540;5.504;2023-07-09T07:20:06;101898.72;;;29.46;54.25
81476;BME280;70891;52.540;5.504;2023-07-09T07:22:32;101912.84;;;29.55;58.39
81476;BME280;70891;52.540;5.504;2023-07-09T07:24:57;101909.41;;;29.44;58.72
81476;BME280;70891;52.540;5.504;2023-07-09T07:27:23;101915.47;;;29.65;55.08
81476;BME280;70891;52.540;5.504;2023-07-09T07:29:48;101928.78;;;29.73;55.39
81476;BME280;70891;52.540;5.504;2023-07-09T07:32:13;101917.44;;;29.78;53.80
81476;BME280;70891;52.540;5.504;2023-07-09T07:34:38;101925.28;;;29.81;54.83
81476;BME280;70891;52.540;5.504;2023-07-09T07:37:04;101916.28;;;29.51;55.29
81476;BME280;70891;52.540;5.504;2023-07-09T07:39:29;101929.28;;;29.61;52.97
81476;BME280;70891;52.540;5.504;2023-07-09T07:41:54;101927.00;;;29.49;53.16
81476;BME280;70891;52.540;5.504;2023-07-09T07:44:21;101922.94;;;29.69;49.00
81476;BME280;70891;52.540;5.504;2023-07-09T07:46:46;101932.53;;;29.95;52.73
81476;BME280;70891;52.540;5.504;2023-07-09T07:49:11;101935.50;;;30.26;51.30
81476;BME280;70891;52.540;5.504;2023-07-09T07:51:37;101928.88;;;30.22;48.36
81476;BME280;70891;52.540;5.504;2023-07-09T07:54:02;101936.88;;;30.15;50.14
81476;BME280;70891;52.540;5.504;2023-07-09T07:56:28;101943.81;;;30.45;50.88
81476;BME280;70891;52.540;5.504;2023-07-09T07:58:53;101937.84;;;29.97;52.49
81476;BME280;70891;52.540;5.504;2023-07-09T08:01:18;101940.50;;;30.43;49.06
81476;BME280;70891;52.540;5.504;2023-07-09T08:03:46;101947.19;;;30.69;47.39
81476;BME280;70891;52.540;5.504;2023-07-09T08:06:11;101949.59;;;30.62;47.83
81476;BME280;70891;52.540;5.504;2023-07-09T08:08:37;101947.59;;;30.40;48.92
81476;BME280;70891;52.540;5.504;2023-07-09T08:11:05;101946.94;;;31.01;48.80
81476;BME280;70891;52.540;5.504;2023-07-09T08:13:32;101947.19;;;30.91;47.75
81476;BME280;70891;52.540;5.504;2023-07-09T08:15:58;101937.78;;;31.18;47.13
81476;BME280;70891;52.540;5.504;2023-07-09T08:18:23;101934.53;;;31.24;48.05
81476;BME280;70891;52.540;5.504;2023-07-09T08:20:48;101937.63;;;31.14;47.99
81476;BME280;70891;52.540;5.504;2023-07-09T08:23:14;101936.34;;;31.51;47.96
81476;BME280;70891;52.540;5.504;2023-07-09T08:25:39;101944.13;;;31.85;49.17
81476;BME280;70891;52.540;5.504;2023-07-09T08:28:05;101939.94;;;32.30;46.76
81476;BME280;70891;52.540;5.504;2023-07-09T08:30:30;101947.06;;;32.28;48.01
81476;BME280;70891;52.540;5.504;2023-07-09T08:32:55;101943.06;;;32.12;45.24
81476;BME280;70891;52.540;5.504;2023-07-09T08:35:22;101936.28;;;32.38;46.25
81476;BME280;70891;52.540;5.504;2023-07-09T08:37:48;101933.53;;;31.99;43.86
81476;BME280;70891;52.540;5.504;2023-07-09T08:40:15;101931.63;;;31.77;44.67
81476;BME280;70891;52.540;5.504;2023-07-09T08:42:46;101932.25;;;32.05;42.58
81476;BME280;70891;52.540;5.504;2023-07-09T08:50:19;101946.88;;;32.24;44.10
81476;BME280;70891;52.540;5.504;2023-07-09T08:52:48;101951.34;;;32.17;44.92
81476;BME280;70891;52.540;5.504;2023-07-09T08:55:17;101947.38;;;32.35;43.10
81476;BME280;70891;52.540;5.504;2023-07-09T08:57:53;101945.56;;;32.30;42.13
81476;BME280;70891;52.540;5.504;2023-07-09T09:00:28;101943.56;;;32.22;46.44
81476;BME280;70891;52.540;5.504;2023-07-09T09:03:09;101939.41;;;32.11;44.54
81476;BME280;70891;52.540;5.504;2023-07-09T09:05:39;101942.91;;;32.25;44.30
81476;BME280;70891;52.540;5.504;2023-07-09T09:08:32;101938.06;;;32.09;41.43
81476;BME280;70891;52.540;5.504;2023-07-09T09:13:40;101950.78;;;31.98;43.89
81476;BME280;70891;52.540;5.504;2023-07-09T09:16:14;101947.88;;;32.20;43.28
81476;BME280;70891;52.540;5.504;2023-07-09T09:18:43;101956.19;;;32.33;43.58
81476;BME280;70891;52.540;5.504;2023-07-09T09:21:23;101948.56;;;32.42;44.33
81476;BME280;70891;52.540;5.504;2023-07-09T09:23:52;101948.41;;;32.39;42.11
81476;BME280;70891;52.540;5.504;2023-07-09T09:26:33;101947.38;;;32.26;43.11
81476;BME280;70891;52.540;5.504;2023-07-09T09:29:00;101944.75;;;32.38;42.96
81476;BME280;70891;52.540;5.504;2023-07-09T09:31:29;101939.66;;;32.58;43.50
81476;BME280;70891;52.540;5.504;2023-07-09T09:33:55;101945.97;;;32.72;42.85
81476;BME280;70891;52.540;5.504;2023-07-09T09:36:23;101933.84;;;32.80;42.49
81476;BME280;70891;52.540;5.504;2023-07-09T09:38:49;101944.44;;;32.91;42.14
81476;BME280;70891;52.540;5.504;2023-07-09T09:41:29;101941.28;;;32.59;41.98
81476;BME280;70891;52.540;5.504;2023-07-09T09:43:55;101932.16;;;32.70;42.25
81476;BME280;70891;52.540;5.504;2023-07-09T09:46:26;101927.53;;;32.74;42.22
81476;BME280;70891;52.540;5.504;2023-07-09T09:48:59;101932.16;;;32.70;41.08
81476;BME280;70891;52.540;5.504;2023-07-09T09:51:25;101927.19;;;32.59;40.50
81476;BME280;70891;52.540;5.504;2023-07-09T09:53:58;101916.41;;;32.61;42.45
81476;BME280;70891;52.540;5.504;2023-07-09T09:56:33;101921.72;;;32.62;41.44
81476;BME280;70891;52.540;5.504;2023-07-09T09:58:59;101916.88;;;32.46;40.98
81476;BME280;70891;52.540;5.504;2023-07-09T10:01:30;101921.03;;;32.57;41.03
81476;BME280;70891;52.540;5.504;2023-07-09T10:03:58;101918.41;;;32.77;43.51
81476;BME280;70891;52.540;5.504;2023-07-09T10:06:33;101912.75;;;32.60;42.89
81476;BME280;70891;52.540;5.504;2023-07-09T10:11:49;101895.59;;;32.99;42.57
81476;BME280;70891;52.540;5.504;2023-07-09T10:14:38;101899.28;;;32.83;41.13
81476;BME280;70891;52.540;5.504;2023-07-09T10:17:15;101898.28;;;32.70;43.05
81476;BME280;70891;52.540;5.504;2023-07-09T10:22:43;101900.00;;;33.35;43.46
81476;BME280;70891;52.540;5.504;2023-07-09T10:25:29;101899.69;;;33.74;42.54
81476;BME280;70891;52.540;5.504;2023-07-09T10:28:20;101888.34;;;34.12;38.72
81476;BME280;70891;52.540;5.504;2023-07-09T10:39:26;101868.34;;;34.58;38.16
81476;BME280;70891;52.540;5.504;2023-07-09T10:41:56;101869.63;;;34.61;38.05
81476;BME280;70891;52.540;5.504;2023-07-09T10:44:33;101860.06;;;34.86;37.05
81476;BME280;70891;52.540;5.504;2023-07-09T10:47:04;101867.13;;;35.13;40.27
81476;BME280;70891;52.540;5.504;2023-07-09T10:49:35;101862.28;;;35.25;39.71
81476;BME280;70891;52.540;5.504;2023-07-09T10:52:29;101863.50;;;35.04;38.51
81476;BME280;70891;52.540;5.504;2023-07-09T10:55:17;101869.38;;;35.32;41.06
81476;BME280;70891;52.540;5.504;2023-07-09T10:57:55;101875.22;;;35.59;40.11
81476;BME280;70891;52.540;5.504;2023-07-09T11:00:32;101871.66;;;35.74;39.21
81476;BME280;70891;52.540;5.504;2023-07-09T11:03:00;101879.22;;;35.70;39.72
81476;BME280;70891;52.540;5.504;2023-07-09T11:05:28;101890.81;;;35.90;36.94
81476;BME280;70891;52.540;5.504;2023-07-09T11:08:08;101903.38;;;34.87;37.52
81476;BME280;70891;52.540;5.504;2023-07-09T11:10:41;101903.53;;;35.02;36.82
81476;BME280;70891;52.540;5.504;2023-07-09T11:15:44;101915.31;;;35.37;38.59
81476;BME280;70891;52.540;5.504;2023-07-09T11:18:16;101903.19;;;35.49;37.62
81476;BME280;70891;52.540;5.504;2023-07-09T11:20:45;101910.97;;;34.53;38.91
81476;BME280;70891;52.540;5.504;2023-07-09T11:23:18;101903.00;;;34.88;39.97
81476;BME280;70891;52.540;5.504;2023-07-09T11:25:46;101891.91;;;35.28;37.51
81476;BME280;70891;52.540;5.504;2023-07-09T11:28:12;101881.88;;;35.18;38.57
81476;BME280;70891;52.540;5.504;2023-07-09T11:33:26;101858.38;;;35.18;39.66
81476;BME280;70891;52.540;5.504;2023-07-09T11:36:06;101850.97;;;34.93;40.10
81476;BME280;70891;52.540;5.504;2023-07-09T11:38:40;101854.25;;;34.29;39.34
81476;BME280;70891;52.540;5.504;2023-07-09T11:46:35;101849.72;;;33.87;40.57
81476;BME280;70891;52.540;5.504;2023-07-09T11:49:01;101844.06;;;33.58;41.84
81476;BME280;70891;52.540;5.504;2023-07-09T11:51:37;101857.91;;;33.13;43.95
81476;BME280;70891;52.540;5.504;2023-07-09T11:54:04;101851.72;;;33.19;42.79
81476;BME280;70891;52.540;5.504;2023-07-09T11:56:29;101854.03;;;33.17;44.48
81476;BME280;70891;52.540;5.504;2023-07-09T11:58:57;101857.41;;;32.93;44.70
81476;BME280;70891;52.540;5.504;2023-07-09T12:01:26;101857.63;;;32.46;44.34
81476;BME280;70891;52.540;5.504;2023-07-09T12:03:52;101861.00;;;31.65;48.91
81476;BME280;70891;52.540;5.504;2023-07-09T12:06:23;101861.19;;;31.38;48.28
81476;BME280;70891;52.540;5.504;2023-07-09T12:08:50;101862.25;;;30.89;50.35
81476;BME280;70891;52.540;5.504;2023-07-09T12:11:23;101872.84;;;30.12;50.30
81476;BME280;70891;52.540;5.504;2023-07-09T12:13:49;101893.41;;;28.99;55.18
81476;BME280;70891;52.540;5.504;2023-07-09T12:16:29;101900.50;;;28.21;57.50
81476;BME280;70891;52.540;5.504;2023-07-09T12:18:55;101891.13;;;28.12;56.62
81476;BME280;70891;52.540;5.504;2023-07-09T12:21:22;101885.19;;;28.51;55.65
81476;BME280;70891;52.540;5.504;2023-07-09T12:23:48;101866.41;;;28.70;56.85
81476;BME280;70891;52.540;5.504;2023-07-09T12:26:16;101867.38;;;28.79;54.43
81476;BME280;70891;52.540;5.504;2023-07-09T12:28:42;101853.06;;;29.27;53.62
81476;BME280;70891;52.540;5.504;2023-07-09T12:31:14;101845.44;;;29.68;54.28
81476;BME280;70891;52.540;5.504;2023-07-09T12:33:52;101845.19;;;30.63;52.06
81476;BME280;70891;52.540;5.504;2023-07-09T12:36:19;101836.59;;;30.91;48.48
81476;BME280;70891;52.540;5.504;2023-07-09T12:38:49;101837.63;;;31.65;49.14
81476;BME280;70891;52.540;5.504;2023-07-09T12:41:27;101831.56;;;32.49;46.31
81476;BME280;70891;52.540;5.504;2023-07-09T12:43:54;101833.63;;;33.03;45.24
81476;BME280;70891;52.540;5.504;2023-07-09T12:46:22;101829.75;;;32.35;49.25
81476;BME280;70891;52.540;5.504;2023-07-09T12:48:48;101826.41;;;31.43;49.46
81476;BME280;70891;52.540;5.504;2023-07-09T12:51:16;101833.22;;;30.58;51.45
81476;BME280;70891;52.540;5.504;2023-07-09T12:53:43;101845.25;;;30.14;50.76
81476;BME280;70891;52.540;5.504;2023-07-09T12:56:12;101856.84;;;30.93;50.22
81476;BME280;70891;52.540;5.504;2023-07-09T12:58:39;101856.22;;;30.82;51.91
81476;BME280;70891;52.540;5.504;2023-07-09T13:01:07;101861.44;;;30.08;55.42
81476;BME280;70891;52.540;5.504;2023-07-09T13:03:34;101852.81;;;29.78;52.43
81476;BME280;70891;52.540;5.504;2023-07-09T13:06:00;101842.69;;;30.04;53.68
81476;BME280;70891;52.540;5.504;2023-07-09T13:08:28;101841.59;;;29.91;53.10
81476;BME280;70891;52.540;5.504;2023-07-09T13:10:54;101848.97;;;29.87;54.34
81476;BME280;70891;52.540;5.504;2023-07-09T13:13:22;101852.63;;;29.61;55.84
81476;BME280;70891;52.540;5.504;2023-07-09T13:15:59;101857.47;;;29.14;53.39
81476;BME280;70891;52.540;5.504;2023-07-09T13:18:27;101876.91;;;28.78;56.32
81476;BME280;70891;52.540;5.504;2023-07-09T13:20:55;101887.81;;;28.48;57.75
81476;BME280;70891;52.540;5.504;2023-07-09T13:23:23;101890.28;;;28.49;56.04
81476;BME280;70891;52.540;5.504;2023-07-09T13:25:49;101897.53;;;28.87;55.24
81476;BME280;70891;52.540;5.504;2023-07-09T13:28:29;101907.63;;;28.51;55.06
81476;BME280;70891;52.540;5.504;2023-07-09T13:31:17;101910.28;;;28.80;57.71
81476;BME280;70891;52.540;5.504;2023-07-09T13:33:44;101913.66;;;28.63;56.18